createdAt,value
2017-05-09T00:00:33.884Z,0
2017-05-09T00:01:43.158Z,0
2017-05-09T00:02:52.114Z,0
2017-05-09T00:04:01.065Z,0
2017-05-09T00:05:10.432Z,0
2017-05-09T00:06:19.686Z,0
2017-05-09T00:07:28.637Z,0
2017-05-09T00:08:37.674Z,0
2017-05-09T00:09:46.637Z,0
2017-05-09T00:10:55.587Z,0
2017-05-09T00:12:04.843Z,0
2017-05-09T00:13:13.802Z,0
2017-05-09T00:14:22.763Z,0
2017-05-09T00:15:31.727Z,0
2017-05-09T00:16:40.764Z,0
2017-05-09T00:17:50.019Z,0
2017-05-09T00:18:58.972Z,0
2017-05-09T00:20:07.922Z,0
2017-05-09T00:21:16.972Z,0
2017-05-09T00:22:25.961Z,0
2017-05-09T00:23:35.212Z,0
2017-05-09T00:24:44.172Z,0
2017-05-09T00:25:53.131Z,0
2017-05-09T00:27:02.077Z,0
2017-05-09T00:28:11.026Z,0
2017-05-09T00:29:20.283Z,0
2017-05-09T00:30:29.558Z,0
2017-05-09T00:31:38.517Z,0
2017-05-09T00:32:47.480Z,0
2017-05-09T00:33:56.433Z,0
2017-05-09T00:35:05.637Z,0
2017-05-09T00:36:14.594Z,0
2017-05-09T00:37:23.546Z,0
2017-05-09T00:38:32.534Z,0
2017-05-09T00:39:41.574Z,0
2017-05-09T00:40:50.827Z,0
2017-05-09T00:41:59.785Z,0
2017-05-09T00:43:08.734Z,0
2017-05-09T00:44:17.685Z,0
2017-05-09T00:45:26.716Z,0
2017-05-09T00:46:35.969Z,0
2017-05-09T00:47:44.924Z,0
2017-05-09T00:48:53.964Z,0
2017-05-09T00:50:03.002Z,0
2017-05-09T00:51:12.369Z,0
2017-05-09T00:52:21.708Z,0
2017-05-09T00:53:30.753Z,0
2017-05-09T00:54:39.714Z,0
2017-05-09T00:55:48.664Z,0
2017-05-09T00:56:57.624Z,0
2017-05-09T00:58:06.889Z,0
2017-05-09T00:59:15.849Z,0
2017-05-09T01:00:24.797Z,0
2017-05-09T01:01:33.747Z,0
2017-05-09T01:02:42.696Z,0
2017-05-09T01:03:51.895Z,0
2017-05-09T01:05:00.843Z,0
2017-05-09T01:06:09.795Z,0
2017-05-09T01:07:18.748Z,0
2017-05-09T01:08:27.708Z,0
2017-05-09T01:09:36.970Z,0
2017-05-09T01:10:45.928Z,0
2017-05-09T01:11:54.881Z,0
2017-05-09T01:13:03.940Z,0
2017-05-09T01:14:12.894Z,0
2017-05-09T01:15:22.147Z,0
2017-05-09T01:16:31.095Z,0
2017-05-09T01:17:40.052Z,0
2017-05-09T01:18:49.012Z,0
2017-05-09T01:19:57.965Z,0
2017-05-09T01:21:07.220Z,0
2017-05-09T01:22:16.168Z,0
2017-05-09T01:23:25.208Z,0
2017-05-09T01:24:34.249Z,0
2017-05-09T01:25:43.204Z,0
2017-05-09T01:26:52.454Z,0
2017-05-09T01:28:01.406Z,0
2017-05-09T01:29:10.362Z,0
2017-05-09T01:30:19.310Z,0
2017-05-09T01:31:28.264Z,0
2017-05-09T01:32:37.514Z,0
2017-05-09T01:33:46.511Z,0
2017-05-09T01:34:55.549Z,0
2017-05-09T01:36:04.505Z,0
2017-05-09T01:37:13.463Z,0
2017-05-09T01:38:23.038Z,0
2017-05-09T01:39:31.999Z,0
2017-05-09T01:40:40.957Z,0
2017-05-09T01:41:49.908Z,0
2017-05-09T01:42:59.187Z,0
2017-05-09T01:44:08.395Z,0
2017-05-09T01:45:17.436Z,0
2017-05-09T01:46:26.391Z,0
2017-05-09T01:47:35.350Z,0
2017-05-09T01:48:44.300Z,0
2017-05-09T01:49:53.558Z,0
2017-05-09T01:51:02.510Z,0
2017-05-09T01:52:11.557Z,0
2017-05-09T01:53:20.538Z,0
2017-05-09T01:54:29.490Z,0
2017-05-09T01:55:38.694Z,0
2017-05-09T01:56:47.732Z,0
2017-05-09T01:57:56.691Z,0
2017-05-09T01:59:05.817Z,0
2017-05-09T02:00:14.774Z,0
2017-05-09T02:01:24.023Z,0
2017-05-09T02:02:33.015Z,0
2017-05-09T02:03:41.975Z,0
2017-05-09T02:04:51.015Z,0
2017-05-09T02:05:59.968Z,0
2017-05-09T02:07:09.173Z,0
2017-05-09T02:08:18.129Z,0
2017-05-09T02:09:27.079Z,0
2017-05-09T02:10:36.031Z,0
2017-05-09T02:11:44.984Z,0
2017-05-09T02:12:54.187Z,0
2017-05-09T02:14:03.146Z,0
2017-05-09T02:15:12.102Z,0
2017-05-09T02:16:21.090Z,0
2017-05-09T02:17:30.052Z,0
2017-05-09T02:18:39.308Z,0
2017-05-09T02:19:48.260Z,0
2017-05-09T02:20:57.211Z,0
2017-05-09T02:22:06.167Z,0
2017-05-09T02:23:15.139Z,0
2017-05-09T02:24:24.403Z,0
2017-05-09T02:25:33.367Z,0
2017-05-09T02:26:42.323Z,0
2017-05-09T02:27:51.275Z,0
2017-05-09T02:29:00.318Z,0
2017-05-09T02:30:09.576Z,0
2017-05-09T02:31:18.538Z,0
2017-05-09T02:32:27.491Z,0
2017-05-09T02:33:36.441Z,0
2017-05-09T02:34:45.391Z,0
2017-05-09T02:35:54.649Z,0
2017-05-09T02:37:03.606Z,0
2017-05-09T02:38:12.884Z,0
2017-05-09T02:39:21.843Z,0
2017-05-09T02:40:30.796Z,0
2017-05-09T02:41:40.041Z,0
2017-05-09T02:42:49.081Z,0
2017-05-09T02:43:58.041Z,0
2017-05-09T02:45:06.993Z,0
2017-05-09T02:46:15.944Z,0
2017-05-09T02:47:25.240Z,0
2017-05-09T02:48:34.200Z,0
2017-05-09T02:49:43.153Z,0
2017-05-09T02:50:52.103Z,0
2017-05-09T02:52:01.057Z,0
2017-05-09T02:53:10.400Z,0
2017-05-09T02:54:19.353Z,0
2017-05-09T02:55:28.392Z,0
2017-05-09T02:56:37.340Z,0
2017-05-09T02:57:46.290Z,0
2017-05-09T02:58:55.547Z,0
2017-05-09T03:00:04.500Z,0
2017-05-09T03:01:13.452Z,0
2017-05-09T03:02:22.444Z,0
2017-05-09T03:03:31.578Z,0
2017-05-09T03:04:40.784Z,0
2017-05-09T03:05:49.733Z,0
2017-05-09T03:06:58.693Z,0
2017-05-09T03:08:07.648Z,0
2017-05-09T03:09:16.921Z,0
2017-05-09T03:10:40.990Z,0
2017-05-09T03:11:49.941Z,0
2017-05-09T03:12:58.894Z,0
2017-05-09T03:14:07.856Z,0
2017-05-09T03:15:16.804Z,0
2017-05-09T03:16:26.009Z,0
2017-05-09T03:17:34.962Z,0
2017-05-09T03:18:43.918Z,0
2017-05-09T03:19:52.873Z,0
2017-05-09T03:21:01.826Z,0
2017-05-09T03:22:11.078Z,0
2017-05-09T03:23:20.039Z,0
2017-05-09T03:24:28.995Z,0
2017-05-09T03:25:38.275Z,0
2017-05-09T03:26:47.229Z,0
2017-05-09T03:27:56.434Z,0
2017-05-09T03:29:05.396Z,0
2017-05-09T03:30:14.373Z,0
2017-05-09T03:31:23.325Z,0
2017-05-09T03:32:32.275Z,0
2017-05-09T03:33:41.480Z,0
2017-05-09T03:34:50.434Z,0
2017-05-09T03:35:59.386Z,0
2017-05-09T03:37:08.350Z,0
2017-05-09T03:38:17.327Z,0
2017-05-09T03:39:26.534Z,0
2017-05-09T03:40:35.665Z,0
2017-05-09T03:41:44.618Z,0
2017-05-09T03:42:53.573Z,5
2017-05-09T03:44:02.612Z,5
2017-05-09T03:45:11.816Z,5
2017-05-09T03:46:20.764Z,5
2017-05-09T03:47:29.716Z,5
2017-05-09T03:48:38.765Z,5
2017-05-09T03:49:48.054Z,5
2017-05-09T03:50:57.255Z,5
2017-05-09T03:52:06.206Z,5
2017-05-09T03:53:15.163Z,5
2017-05-09T03:54:24.121Z,5
2017-05-09T03:55:33.074Z,5
2017-05-09T03:56:42.399Z,5
2017-05-09T03:57:51.447Z,5
2017-05-09T03:59:00.399Z,5
2017-05-09T04:00:09.353Z,5
2017-05-09T04:01:18.305Z,5
2017-05-09T04:02:27.568Z,5
2017-05-09T04:03:36.535Z,5
2017-05-09T04:04:45.588Z,5
2017-05-09T04:05:54.545Z,5
2017-05-09T04:07:03.505Z,5
2017-05-09T04:08:12.803Z,5
2017-05-09T04:09:21.748Z,10
2017-05-09T04:10:30.706Z,10
2017-05-09T04:11:39.654Z,10
2017-05-09T04:12:48.605Z,10
2017-05-09T04:13:57.820Z,10
2017-05-09T04:15:06.771Z,10
2017-05-09T04:16:15.728Z,10
2017-05-09T04:17:25.000Z,10
2017-05-09T04:18:33.965Z,10
2017-05-09T04:19:43.168Z,15
2017-05-09T04:20:52.122Z,15
2017-05-09T04:22:01.111Z,15
2017-05-09T04:23:10.069Z,15
2017-05-09T04:24:19.111Z,15
2017-05-09T04:25:28.410Z,15
2017-05-09T04:26:37.360Z,15
2017-05-09T04:27:46.314Z,20
2017-05-09T04:28:55.357Z,20
2017-05-09T04:30:04.313Z,20
2017-05-09T04:31:13.605Z,20
2017-05-09T04:32:22.555Z,20
2017-05-09T04:33:31.522Z,20
2017-05-09T04:34:40.472Z,15
2017-05-09T04:35:49.419Z,15
2017-05-09T04:36:58.625Z,15
2017-05-09T04:38:07.580Z,15
2017-05-09T04:39:16.536Z,15
2017-05-09T04:40:25.491Z,15
2017-05-09T04:41:34.449Z,15
2017-05-09T04:42:43.990Z,15
2017-05-09T04:43:52.951Z,15
2017-05-09T04:45:01.987Z,15
2017-05-09T04:46:10.942Z,15
2017-05-09T04:47:19.892Z,20
2017-05-09T04:48:29.104Z,20
2017-05-09T04:49:38.055Z,20
2017-05-09T04:50:47.092Z,20
2017-05-09T04:51:56.056Z,20
2017-05-09T04:53:05.011Z,20
2017-05-09T04:54:14.210Z,20
2017-05-09T04:55:23.162Z,20
2017-05-09T04:56:32.117Z,20
2017-05-09T04:57:41.074Z,20
2017-05-09T04:58:50.370Z,20
2017-05-09T04:59:59.579Z,20
2017-05-09T05:01:08.531Z,20
2017-05-09T05:02:17.486Z,20
2017-05-09T05:03:26.440Z,25
2017-05-09T05:04:35.392Z,25
2017-05-09T05:05:44.688Z,30
2017-05-09T05:06:53.635Z,30
2017-05-09T05:08:02.590Z,35
2017-05-09T05:09:11.540Z,35
2017-05-09T05:10:20.492Z,40
2017-05-09T05:11:29.700Z,40
2017-05-09T05:12:38.651Z,40
2017-05-09T05:13:47.931Z,40
2017-05-09T05:14:56.890Z,45
2017-05-09T05:16:05.841Z,45
2017-05-09T05:17:15.044Z,40
2017-05-09T05:18:23.997Z,40
2017-05-09T05:19:33.201Z,35
2017-05-09T05:20:42.342Z,35
2017-05-09T05:21:51.289Z,35
2017-05-09T05:23:00.496Z,35
2017-05-09T05:24:10.381Z,35
2017-05-09T05:25:19.336Z,35
2017-05-09T05:26:28.287Z,35
2017-05-09T05:27:37.250Z,35
2017-05-09T05:28:46.544Z,35
2017-05-09T05:29:55.495Z,35
2017-05-09T05:31:04.448Z,30
2017-05-09T05:32:13.488Z,25
2017-05-09T05:33:22.441Z,25
2017-05-09T05:34:31.644Z,25
2017-05-09T05:35:40.604Z,30
2017-05-09T05:36:49.566Z,30
2017-05-09T05:37:58.717Z,35
2017-05-09T05:39:07.675Z,40
2017-05-09T05:40:16.988Z,40
2017-05-09T05:41:26.021Z,40
2017-05-09T05:42:35.459Z,40
2017-05-09T05:43:44.460Z,40
2017-05-09T05:44:53.467Z,40
2017-05-09T05:46:02.862Z,35
2017-05-09T05:47:11.863Z,40
2017-05-09T05:48:20.857Z,40
2017-05-09T05:49:30.010Z,40
2017-05-09T05:50:39.570Z,45
2017-05-09T05:51:48.984Z,45
2017-05-09T05:52:57.977Z,45
2017-05-09T05:54:07.138Z,45
2017-05-09T05:55:16.177Z,45
2017-05-09T05:56:25.139Z,45
2017-05-09T05:57:34.431Z,45
2017-05-09T05:58:43.721Z,50
2017-05-09T05:59:52.677Z,55
2017-05-09T06:01:01.683Z,55
2017-05-09T06:02:10.639Z,55
2017-05-09T06:03:19.895Z,50
2017-05-09T06:04:28.930Z,50
2017-05-09T06:05:37.897Z,55
2017-05-09T06:06:47.018Z,55
2017-05-09T06:07:56.514Z,60
2017-05-09T06:09:05.978Z,65
2017-05-09T06:10:15.130Z,70
2017-05-09T06:11:24.241Z,75
2017-05-09T06:12:33.340Z,75
2017-05-09T06:13:42.582Z,80
2017-05-09T06:14:51.965Z,80
2017-05-09T06:16:01.027Z,85
2017-05-09T06:17:10.227Z,90
2017-05-09T06:18:19.360Z,95
2017-05-09T06:19:28.318Z,95
2017-05-09T06:20:37.898Z,95
2017-05-09T06:21:46.938Z,100
2017-05-09T06:22:55.896Z,100
2017-05-09T06:24:04.853Z,105
2017-05-09T06:25:13.809Z,110
2017-05-09T06:26:23.024Z,110
2017-05-09T06:27:31.977Z,115
2017-05-09T06:28:40.929Z,120
2017-05-09T06:29:49.890Z,120
2017-05-09T06:30:58.843Z,130
2017-05-09T06:32:08.125Z,130
2017-05-09T06:33:17.082Z,140
2017-05-09T06:34:26.360Z,145
2017-05-09T06:35:35.348Z,145
2017-05-09T06:36:44.306Z,145
2017-05-09T06:37:53.653Z,135
2017-05-09T06:39:02.606Z,125
2017-05-09T06:40:11.561Z,100
2017-05-09T06:41:20.839Z,80
2017-05-09T06:42:29.795Z,65
2017-05-09T06:43:39.048Z,60
2017-05-09T06:44:48.016Z,60
2017-05-09T06:45:57.297Z,60
2017-05-09T06:47:06.252Z,60
2017-05-09T06:48:15.224Z,60
2017-05-09T06:49:24.806Z,55
2017-05-09T06:50:33.850Z,50
2017-05-09T06:51:42.946Z,55
2017-05-09T06:52:51.928Z,60
2017-05-09T06:54:00.914Z,65
2017-05-09T06:55:10.283Z,70
2017-05-09T06:56:19.260Z,75
2017-05-09T06:57:28.233Z,90
2017-05-09T06:58:37.216Z,100
2017-05-09T06:59:46.276Z,120
2017-05-09T07:00:55.552Z,130
2017-05-09T07:02:04.532Z,135
2017-05-09T07:03:13.506Z,135
2017-05-09T07:04:22.485Z,140
2017-05-09T07:05:31.549Z,140
2017-05-09T07:06:40.800Z,145
2017-05-09T07:07:49.761Z,140
2017-05-09T07:08:58.719Z,140
2017-05-09T07:10:07.678Z,140
2017-05-09T07:11:16.955Z,140
2017-05-09T07:12:26.162Z,135
2017-05-09T07:13:35.115Z,135
2017-05-09T07:14:44.110Z,130
2017-05-09T07:15:53.063Z,130
2017-05-09T07:17:02.339Z,130
2017-05-09T07:18:11.564Z,140
2017-05-09T07:19:20.521Z,145
2017-05-09T07:20:29.524Z,175
2017-05-09T07:21:38.565Z,150
2017-05-09T07:22:48.337Z,155
2017-05-09T07:23:57.550Z,150
2017-05-09T07:25:06.517Z,145
2017-05-09T07:26:15.565Z,145
2017-05-09T07:27:24.519Z,150
2017-05-09T07:28:33.472Z,155
2017-05-09T07:29:42.680Z,160
2017-05-09T07:30:51.692Z,160
2017-05-09T07:32:00.653Z,160
2017-05-09T07:33:09.696Z,160
2017-05-09T07:34:18.650Z,155
2017-05-09T07:35:27.861Z,150
2017-05-09T07:36:36.821Z,145
2017-05-09T07:37:45.785Z,135
2017-05-09T07:38:54.745Z,135
2017-05-09T07:40:03.705Z,135
2017-05-09T07:41:12.921Z,145
2017-05-09T07:42:21.887Z,140
2017-05-09T07:43:31.200Z,155
2017-05-09T07:44:40.167Z,155
2017-05-09T07:45:49.124Z,155
2017-05-09T07:46:58.565Z,150
2017-05-09T07:48:07.557Z,145
2017-05-09T07:49:16.514Z,135
2017-05-09T07:50:25.470Z,160
2017-05-09T07:51:34.428Z,170
2017-05-09T07:52:43.697Z,165
2017-05-09T07:53:52.657Z,180
2017-05-09T07:55:01.617Z,180
2017-05-09T07:56:10.662Z,190
2017-05-09T07:57:19.706Z,200
2017-05-09T07:58:28.958Z,205
2017-05-09T07:59:37.999Z,205
2017-05-09T08:00:47.053Z,210
2017-05-09T08:01:56.006Z,190
2017-05-09T08:03:04.961Z,180
2017-05-09T08:04:14.222Z,170
2017-05-09T08:05:23.174Z,150
2017-05-09T08:06:32.135Z,125
2017-05-09T08:07:41.094Z,130
2017-05-09T08:08:50.045Z,120
2017-05-09T08:09:59.315Z,110
2017-05-09T08:11:08.269Z,105
2017-05-09T08:12:17.312Z,95
2017-05-09T08:13:26.275Z,100
2017-05-09T08:14:35.228Z,110
2017-05-09T08:15:44.491Z,110
2017-05-09T08:16:53.532Z,135
2017-05-09T08:18:02.496Z,135
2017-05-09T08:19:11.461Z,120
2017-05-09T08:20:20.429Z,130
2017-05-09T08:21:29.696Z,150
2017-05-09T08:22:38.655Z,160
2017-05-09T08:23:47.704Z,170
2017-05-09T08:24:56.662Z,160
2017-05-09T08:26:05.617Z,140
2017-05-09T08:27:14.823Z,140
2017-05-09T08:28:23.913Z,145
2017-05-09T08:29:32.869Z,155
2017-05-09T08:30:41.907Z,160
2017-05-09T08:31:50.950Z,125
2017-05-09T08:33:00.208Z,170
2017-05-09T08:34:09.252Z,160
2017-05-09T08:35:18.381Z,105
2017-05-09T08:36:27.336Z,100
2017-05-09T08:37:36.293Z,95
2017-05-09T08:38:45.549Z,125
2017-05-09T08:39:54.503Z,160
2017-05-09T08:41:03.550Z,120
2017-05-09T08:42:12.506Z,195
2017-05-09T08:43:21.466Z,165
2017-05-09T08:44:30.734Z,175
2017-05-09T08:45:39.690Z,185
2017-05-09T08:46:48.654Z,155
2017-05-09T08:47:57.701Z,125
2017-05-09T08:49:06.655Z,145
2017-05-09T08:50:15.999Z,160
2017-05-09T08:51:24.960Z,140
2017-05-09T08:52:33.922Z,150
2017-05-09T08:53:42.880Z,120
2017-05-09T08:54:51.925Z,135
2017-05-09T08:56:01.129Z,180
2017-05-09T08:57:10.173Z,170
2017-05-09T08:58:19.219Z,160
2017-05-09T08:59:28.262Z,190
2017-05-09T09:00:37.219Z,175
2017-05-09T09:01:46.477Z,145
2017-05-09T09:02:55.431Z,75
2017-05-09T09:04:04.393Z,50
2017-05-09T09:05:13.352Z,40
2017-05-09T09:06:22.307Z,35
2017-05-09T09:07:31.739Z,40
2017-05-09T09:08:40.692Z,50
2017-05-09T09:09:49.641Z,55
2017-05-09T09:10:58.930Z,55
2017-05-09T09:12:07.892Z,55
2017-05-09T09:13:17.151Z,50
2017-05-09T09:14:26.111Z,55
2017-05-09T09:15:35.063Z,60
2017-05-09T09:16:44.017Z,80
2017-05-09T09:17:52.971Z,90
2017-05-09T09:19:02.236Z,90
2017-05-09T09:20:11.205Z,90
2017-05-09T09:21:20.158Z,90
2017-05-09T09:22:29.114Z,95
2017-05-09T09:23:38.066Z,100
2017-05-09T09:24:47.323Z,105
2017-05-09T09:25:56.277Z,105
2017-05-09T09:27:05.235Z,105
2017-05-09T09:28:14.186Z,105
2017-05-09T09:29:23.145Z,110
2017-05-09T09:30:32.394Z,110
2017-05-09T09:31:41.348Z,110
2017-05-09T09:32:50.306Z,115
2017-05-09T09:33:59.592Z,115
2017-05-09T09:35:08.645Z,115
2017-05-09T09:36:17.992Z,115
2017-05-09T09:37:27.034Z,115
2017-05-09T09:38:36.074Z,120
2017-05-09T09:39:45.039Z,80
2017-05-09T09:40:54.327Z,125
2017-05-09T09:42:03.619Z,115
2017-05-09T09:43:12.577Z,140
2017-05-09T09:44:21.614Z,110
2017-05-09T09:45:30.577Z,110
2017-05-09T09:46:39.538Z,110
2017-05-09T09:47:48.881Z,110
2017-05-09T09:48:58.157Z,110
2017-05-09T09:50:07.115Z,110
2017-05-09T09:51:16.071Z,115
2017-05-09T09:52:25.031Z,125
2017-05-09T09:53:34.287Z,115
2017-05-09T09:54:43.241Z,110
2017-05-09T09:55:52.279Z,115
2017-05-09T09:57:01.228Z,120
2017-05-09T09:58:10.506Z,120
2017-05-09T09:59:19.766Z,125
2017-05-09T10:00:28.731Z,135
2017-05-09T10:01:37.683Z,140
2017-05-09T10:02:46.727Z,150
2017-05-09T10:03:55.685Z,130
2017-05-09T10:05:05.028Z,185
2017-05-09T10:06:13.984Z,175
2017-05-09T10:07:22.945Z,130
2017-05-09T10:08:31.899Z,145
2017-05-09T10:09:40.863Z,120
2017-05-09T10:10:50.452Z,145
2017-05-09T10:11:59.437Z,155
2017-05-09T10:13:08.393Z,155
2017-05-09T10:14:17.357Z,135
2017-05-09T10:15:26.313Z,150
2017-05-09T10:16:35.569Z,130
2017-05-09T10:17:44.531Z,160
2017-05-09T10:18:53.577Z,170
2017-05-09T10:20:02.618Z,195
2017-05-09T10:21:11.581Z,150
2017-05-09T10:22:21.016Z,120
2017-05-09T10:23:29.973Z,115
2017-05-09T10:24:38.933Z,90
2017-05-09T10:25:47.895Z,70
2017-05-09T10:26:56.848Z,60
2017-05-09T10:28:06.110Z,50
2017-05-09T10:29:15.066Z,40
2017-05-09T10:30:24.108Z,35
2017-05-09T10:31:33.391Z,35
2017-05-09T10:32:42.358Z,35
2017-05-09T10:33:51.702Z,30
2017-05-09T10:35:00.657Z,30
2017-05-09T10:36:09.614Z,30
2017-05-09T10:37:18.575Z,35
2017-05-09T10:38:27.613Z,40
2017-05-09T10:39:36.879Z,50
2017-05-09T10:40:45.833Z,60
2017-05-09T10:41:54.788Z,65
2017-05-09T10:43:03.742Z,75
2017-05-09T10:44:13.021Z,95
2017-05-09T10:45:22.227Z,125
2017-05-09T10:46:31.186Z,125
2017-05-09T10:47:40.144Z,135
2017-05-09T10:48:49.098Z,160
2017-05-09T10:49:58.052Z,175
2017-05-09T10:51:07.308Z,185
2017-05-09T10:52:16.271Z,180
2017-05-09T10:53:25.354Z,160
2017-05-09T10:54:34.314Z,150
2017-05-09T10:55:43.274Z,130
2017-05-09T10:56:52.528Z,120
2017-05-09T10:58:01.481Z,110
2017-05-09T10:59:10.443Z,95
2017-05-09T11:00:19.805Z,70
2017-05-09T11:01:28.763Z,65
2017-05-09T11:02:38.022Z,60
2017-05-09T11:03:46.978Z,60
2017-05-09T11:04:55.933Z,50
2017-05-09T11:06:04.891Z,45
2017-05-09T11:07:13.847Z,40
2017-05-09T11:08:23.058Z,35
2017-05-09T11:09:32.101Z,30
2017-05-09T11:10:41.051Z,30
2017-05-09T11:11:50.004Z,25
2017-05-09T11:12:58.965Z,25
2017-05-09T11:14:08.168Z,25
2017-05-09T11:15:17.121Z,30
2017-05-09T11:16:26.076Z,35
2017-05-09T11:17:35.034Z,35
2017-05-09T11:18:43.990Z,35
2017-05-09T11:19:53.244Z,35
2017-05-09T11:21:02.197Z,40
2017-05-09T11:22:11.201Z,50
2017-05-09T11:23:20.155Z,50
2017-05-09T11:24:29.111Z,50
2017-05-09T11:25:38.372Z,50
2017-05-09T11:26:47.326Z,50
2017-05-09T11:27:56.276Z,50
2017-05-09T11:29:05.312Z,50
2017-05-09T11:30:14.271Z,55
2017-05-09T11:31:23.527Z,50
2017-05-09T11:32:32.508Z,55
2017-05-09T11:33:41.464Z,55
2017-05-09T11:34:50.417Z,65
2017-05-09T11:35:59.373Z,65
2017-05-09T11:37:08.631Z,65
2017-05-09T11:38:17.591Z,55
2017-05-09T11:39:26.546Z,55
2017-05-09T11:40:35.495Z,55
2017-05-09T11:41:44.449Z,55
2017-05-09T11:42:53.702Z,50
2017-05-09T11:44:02.650Z,45
2017-05-09T11:45:11.693Z,40
2017-05-09T11:46:20.646Z,45
2017-05-09T11:47:29.596Z,50
2017-05-09T11:48:38.851Z,55
2017-05-09T11:49:47.806Z,55
2017-05-09T11:50:57.096Z,55
2017-05-09T11:52:06.057Z,50
2017-05-09T11:53:15.340Z,55
2017-05-09T11:54:24.593Z,65
2017-05-09T11:55:33.545Z,80
2017-05-09T11:56:42.581Z,85
2017-05-09T11:57:51.533Z,90
2017-05-09T11:59:00.581Z,90
2017-05-09T12:00:09.834Z,90
2017-05-09T12:01:18.786Z,90
2017-05-09T12:02:27.737Z,85
2017-05-09T12:03:36.691Z,85
2017-05-09T12:04:45.653Z,85
2017-05-09T12:05:54.862Z,90
2017-05-09T12:07:03.817Z,95
2017-05-09T12:08:12.778Z,95
2017-05-09T12:09:21.728Z,95
2017-05-09T12:10:30.854Z,85
2017-05-09T12:11:40.110Z,75
2017-05-09T12:12:49.070Z,65
2017-05-09T12:13:58.020Z,65
2017-05-09T12:15:06.971Z,60
2017-05-09T12:16:15.932Z,60
2017-05-09T12:17:25.134Z,65
2017-05-09T12:18:34.091Z,65
2017-05-09T12:19:43.046Z,65
2017-05-09T12:20:52.004Z,65
2017-05-09T12:22:01.280Z,60
2017-05-09T12:23:10.484Z,60
2017-05-09T12:24:19.437Z,55
2017-05-09T12:25:28.563Z,55
2017-05-09T12:26:37.515Z,50
2017-05-09T12:27:46.475Z,50
2017-05-09T12:28:55.683Z,50
2017-05-09T12:30:04.637Z,50
2017-05-09T12:31:13.590Z,50
2017-05-09T12:32:22.540Z,55
2017-05-09T12:33:31.494Z,60
2017-05-09T12:34:40.783Z,60
2017-05-09T12:35:49.818Z,60
2017-05-09T12:36:58.771Z,65
2017-05-09T12:38:07.732Z,65
2017-05-09T12:39:16.683Z,70
2017-05-09T12:40:25.938Z,70
2017-05-09T12:41:34.893Z,70
2017-05-09T12:42:43.857Z,75
2017-05-09T12:43:52.837Z,80
2017-05-09T12:45:01.795Z,80
2017-05-09T12:46:11.085Z,85
2017-05-09T12:47:20.039Z,90
2017-05-09T12:48:28.989Z,90
2017-05-09T12:49:37.941Z,95
2017-05-09T12:50:46.888Z,95
2017-05-09T12:51:56.150Z,100
2017-05-09T12:53:05.113Z,100
2017-05-09T12:54:14.061Z,105
2017-05-09T12:55:23.013Z,105
2017-05-09T12:56:31.969Z,110
2017-05-09T12:57:41.225Z,110
2017-05-09T12:58:50.179Z,110
2017-05-09T12:59:59.131Z,105
2017-05-09T13:01:08.083Z,100
2017-05-09T13:02:17.450Z,100
2017-05-09T13:03:26.661Z,100
2017-05-09T13:04:35.613Z,95
2017-05-09T13:05:44.562Z,95
2017-05-09T13:06:53.519Z,100
2017-05-09T13:08:02.474Z,105
2017-05-09T13:09:11.725Z,110
2017-05-09T13:10:20.675Z,110
2017-05-09T13:11:29.626Z,115
2017-05-09T13:12:38.605Z,110
2017-05-09T13:13:47.576Z,105
2017-05-09T13:14:56.783Z,105
2017-05-09T13:16:05.737Z,100
2017-05-09T13:17:14.689Z,95
2017-05-09T13:18:23.639Z,95
2017-05-09T13:19:32.597Z,90
2017-05-09T13:20:41.938Z,80
2017-05-09T13:21:50.894Z,80
2017-05-09T13:22:59.844Z,70
2017-05-09T13:24:08.798Z,65
2017-05-09T13:25:17.755Z,65
2017-05-09T13:26:27.015Z,65
2017-05-09T13:27:35.974Z,60
2017-05-09T13:28:44.923Z,55
2017-05-09T13:29:53.884Z,55
2017-05-09T13:31:02.836Z,50
2017-05-09T13:32:12.114Z,55
2017-05-09T13:33:21.071Z,55
2017-05-09T13:34:30.026Z,60
2017-05-09T13:35:38.981Z,65
2017-05-09T13:36:48.255Z,75
2017-05-09T13:37:57.516Z,85
2017-05-09T13:39:06.468Z,100
2017-05-09T13:40:15.513Z,110
2017-05-09T13:41:24.469Z,115
2017-05-09T13:42:33.430Z,115
2017-05-09T13:43:42.640Z,115
2017-05-09T13:44:51.596Z,110
2017-05-09T13:46:00.640Z,100
2017-05-09T13:47:09.593Z,90
2017-05-09T13:48:18.546Z,80
2017-05-09T13:49:27.805Z,70
2017-05-09T13:50:36.763Z,65
2017-05-09T13:51:45.810Z,65
2017-05-09T13:52:55.410Z,65
2017-05-09T13:54:04.366Z,75
2017-05-09T13:55:13.760Z,75
2017-05-09T13:56:22.714Z,85
2017-05-09T13:57:31.711Z,85
2017-05-09T13:58:40.673Z,90
2017-05-09T13:59:49.629Z,90
2017-05-09T14:00:59.489Z,95
2017-05-09T14:02:08.824Z,100
2017-05-09T14:03:18.081Z,105
2017-05-09T14:04:27.265Z,105
2017-05-09T14:05:36.668Z,105
2017-05-09T14:06:46.040Z,110
2017-05-09T14:07:55.180Z,115
2017-05-09T14:09:04.262Z,105
2017-05-09T14:10:13.333Z,105
2017-05-09T14:11:22.424Z,100
2017-05-09T14:12:32.133Z,100
2017-05-09T14:13:41.308Z,90
2017-05-09T14:14:50.551Z,105
2017-05-09T14:15:59.795Z,120
2017-05-09T14:17:09.203Z,110
2017-05-09T14:18:18.644Z,85
2017-05-09T14:19:27.878Z,60
2017-05-09T14:20:37.507Z,80
2017-05-09T14:21:46.484Z,65
2017-05-09T14:22:55.933Z,55
2017-05-09T14:24:05.368Z,55
2017-05-09T14:25:14.531Z,75
2017-05-09T14:26:23.511Z,50
2017-05-09T14:27:32.656Z,60
2017-05-09T14:28:41.776Z,75
2017-05-09T14:29:51.414Z,85
2017-05-09T14:31:00.406Z,80
2017-05-09T14:32:09.486Z,80
2017-05-09T14:33:18.774Z,75
2017-05-09T14:34:27.974Z,55
2017-05-09T14:35:37.678Z,70
2017-05-09T14:36:46.723Z,85
2017-05-09T14:37:55.790Z,70
2017-05-09T14:39:04.812Z,70
2017-05-09T14:40:13.769Z,75
2017-05-09T14:41:23.006Z,70
2017-05-09T14:42:31.961Z,60
2017-05-09T14:43:40.914Z,70
2017-05-09T14:44:49.880Z,75
2017-05-09T14:45:58.834Z,65
2017-05-09T14:47:08.180Z,65
2017-05-09T14:48:17.305Z,60
2017-05-09T14:49:26.260Z,65
2017-05-09T14:50:35.216Z,65
2017-05-09T14:51:44.270Z,65
2017-05-09T14:52:53.517Z,65
2017-05-09T14:54:02.477Z,70
2017-05-09T14:55:11.471Z,75
2017-05-09T14:56:20.518Z,70
2017-05-09T14:57:29.561Z,55
2017-05-09T14:58:39.154Z,55
2017-05-09T14:59:48.108Z,60
2017-05-09T15:00:57.068Z,60
2017-05-09T15:02:06.026Z,65
2017-05-09T15:03:14.982Z,65
2017-05-09T15:04:24.185Z,70
2017-05-09T15:05:33.135Z,70
2017-05-09T15:06:42.097Z,70
2017-05-09T15:07:51.111Z,75
2017-05-09T15:09:00.122Z,75
2017-05-09T15:10:09.795Z,80
2017-05-09T15:11:18.787Z,85
2017-05-09T15:12:27.921Z,90
2017-05-09T15:13:36.951Z,85
2017-05-09T15:14:45.921Z,85
2017-05-09T15:15:55.198Z,85
2017-05-09T15:17:04.153Z,85
2017-05-09T15:18:13.116Z,85
2017-05-09T15:19:22.073Z,85
2017-05-09T15:20:31.025Z,80
2017-05-09T15:21:40.284Z,80
2017-05-09T15:22:49.246Z,80
2017-05-09T15:23:58.290Z,75
2017-05-09T15:25:07.258Z,70
2017-05-09T15:26:16.548Z,65
2017-05-09T15:27:26.577Z,60
2017-05-09T15:28:35.621Z,60
2017-05-09T15:29:44.572Z,70
2017-05-09T15:30:53.528Z,60
2017-05-09T15:32:02.484Z,60
2017-05-09T15:33:11.744Z,60
2017-05-09T15:34:20.736Z,60
2017-05-09T15:35:29.699Z,60
2017-05-09T15:36:38.776Z,55
2017-05-09T15:37:47.766Z,50
2017-05-09T15:38:57.030Z,45
2017-05-09T15:40:05.986Z,45
2017-05-09T15:41:15.031Z,45
2017-05-09T15:42:23.981Z,40
2017-05-09T15:43:32.940Z,40
2017-05-09T15:44:42.281Z,40
2017-05-09T15:45:51.230Z,40
2017-05-09T15:47:00.190Z,40
2017-05-09T15:48:09.148Z,35
2017-05-09T15:49:18.097Z,35
2017-05-09T15:50:27.354Z,35
2017-05-09T15:51:36.310Z,35
2017-05-09T15:52:45.263Z,35
2017-05-09T15:53:54.560Z,40
2017-05-09T15:55:03.515Z,35
2017-05-09T15:56:12.861Z,35
2017-05-09T15:57:21.830Z,35
2017-05-09T15:58:30.789Z,45
2017-05-09T15:59:39.745Z,35
2017-05-09T16:00:48.704Z,40
2017-05-09T16:01:57.961Z,35
2017-05-09T16:03:06.920Z,35
2017-05-09T16:04:15.876Z,45
2017-05-09T16:05:24.828Z,50
2017-05-09T16:06:33.785Z,35
2017-05-09T16:07:42.994Z,35
2017-05-09T16:08:52.061Z,35
2017-05-09T16:10:01.342Z,45
2017-05-09T16:11:10.298Z,35
2017-05-09T16:12:19.250Z,35
2017-05-09T16:13:28.511Z,35
2017-05-09T16:14:37.464Z,35
2017-05-09T16:15:46.422Z,35
2017-05-09T16:16:55.375Z,35
2017-05-09T16:18:04.334Z,35
2017-05-09T16:19:13.590Z,35
2017-05-09T16:20:22.540Z,35
2017-05-09T16:21:31.498Z,35
2017-05-09T16:22:40.558Z,35
2017-05-09T16:23:49.513Z,35
2017-05-09T16:24:58.723Z,35